Accueil
METAR-TAF:

METAR-TAF

Aéroports :

Aéroport de Grenade-Federico García Lorca

Grenade, Espagne

latitude: 37-11N, longitude: 003-47W, altitude: 567 m

Observation

Le bulletin a été fait il y a 35 minutes, à 17:30 UTC
Vent 4 kt de ouest, variant entre sud-ouest et nord
Température 21°C
Humidité 53%
Pression 1021 hPa
Visibilité 10 km ou plus
Quelques nuages à une hauteur de 7800 ft
Nuages épars à une hauteur de 8800 ft

METAR: LEGR 061730Z AUTO 28004KT 230V350 9999 FEW078 SCT088 21/11 Q1021

Heure: 20:05 (18:05 UTC)

Prévision

Le bulletin a été fait il y a 4 heures et 5 minutes, à 14:00 UTC
Prévision valable du 06 à 15 UTC au 07 à 15 UTC
Vent 2 kt de direction variable
Visibilité 10 km ou plus
Quelques nuages à une hauteur de 3500 ft
Probabilité 40% :
Temporairement
du 06 à 15 UTC au 06 à 18 UTC
Vent 10 kt de ouest/sud-ouest

TAF: LEGR 061400Z 0615/0715 VRB02KT 9999 FEW035 TX22/0715Z TN06/0706Z PROB40 TEMPO 0615/0618 25010KT

Observations et prévisions météorologiques de plus de 4000 aéroports (messages METAR et TAF).

Les stations disponibles sont représentées par des disques jaunes et rouges sur la carte.

Passer la souris dessus pour voir le nom de la station.

Cliquer dessus pour voir les observations et prévisions météorologiques.

Pour changer de carte: cliquez sur les boutons verts avec une croix noire pour zoomer, sur le bouton vert avec un tiret pour effectuer un zoom arrière, ou sur les flèches vertes pour les cartes adjacentes.


METAR-TAF: